Terminal Aerodrome Forecast
Issued by NWS

Home | Current Version | Previous Version | Text Only | Print | Product List | Glossary On
Versions: 1 2 3 4 5 6 7 8 9 10 11 12 13 14 15 16
000
FTUS44 KCRP 221100
TAFALI
TAF
KALI 221129Z 2212/2312 20005KT P6SM OVC006
      TEMPO 2212/2214 3SM BR OVC003
     FM221400 20006KT P6SM OVC012
     FM221700 21008KT P6SM SCT015
     FM221800 23010KT P6SM SKC
     FM230100 18005KT P6SM SCT020
     FM230600 17006KT 3SM BR OVC005=

USA.gov is the U.S. government's official web portal to all federal, state and local government web resources and services.